createdAt,value
2023-04-29T00:02:49.130Z,100138.44
2023-04-29T00:05:51.882Z,100145.94
2023-04-29T00:08:54.210Z,100139.88
2023-04-29T00:11:56.656Z,100144.97
2023-04-29T00:14:59.548Z,100140.38
2023-04-29T00:18:02.020Z,100139.13
2023-04-29T00:21:05.990Z,100129.88
2023-04-29T00:24:08.518Z,100130.16
2023-04-29T00:27:11.918Z,100134.00
2023-04-29T00:30:14.400Z,100127.31
2023-04-29T00:33:16.674Z,100127.31
2023-04-29T00:36:19.136Z,100119.81
2023-04-29T00:39:21.308Z,100127.16
2023-04-29T00:42:24.106Z,100123.47
2023-04-29T00:45:27.563Z,100130.34
2023-04-29T00:48:30.103Z,100132.56
2023-04-29T00:51:33.672Z,100133.69
2023-04-29T00:54:37.365Z,100141.00
2023-04-29T00:57:39.586Z,100136.69
2023-04-29T01:00:44.005Z,100135.78
2023-04-29T01:03:46.410Z,100137.03
2023-04-29T01:07:13.620Z,100139.88
2023-04-29T01:10:23.988Z,100129.69
2023-04-29T01:13:37.802Z,100129.69
2023-04-29T01:16:47.242Z,100131.94
2023-04-29T01:19:55.971Z,100129.84
2023-04-29T01:22:58.457Z,100136.41
2023-04-29T01:26:01.356Z,100134.50
2023-04-29T01:29:28.684Z,100129.25
2023-04-29T01:32:52.423Z,100134.47
2023-04-29T01:36:13.433Z,100129.09
2023-04-29T01:39:32.852Z,100130.38
2023-04-29T01:42:35.908Z,100121.28
2023-04-29T01:45:42.155Z,100120.50
2023-04-29T01:48:44.457Z,100120.00
2023-04-29T01:51:46.873Z,100124.81
2023-04-29T01:54:49.122Z,100115.56
2023-04-29T01:57:51.955Z,100115.25
2023-04-29T02:00:55.548Z,100120.00
2023-04-29T02:03:58.889Z,100121.44
2023-04-29T02:07:01.630Z,100124.16
2023-04-29T02:10:04.471Z,100124.16
2023-04-29T02:13:08.505Z,100116.34
2023-04-29T02:16:13.442Z,100120.00
2023-04-29T02:19:17.026Z,100117.63
2023-04-29T02:22:19.536Z,100117.31
2023-04-29T02:25:21.740Z,100126.06
2023-04-29T02:28:24.208Z,100118.44
2023-04-29T02:31:26.435Z,100114.94
2023-04-29T02:34:29.281Z,100117.00
2023-04-29T02:37:32.056Z,100113.97
2023-04-29T02:40:34.566Z,100112.50
2023-04-29T02:43:36.748Z,100111.09
2023-04-29T02:46:41.500Z,100110.31
2023-04-29T02:49:43.750Z,100101.22
2023-04-29T02:52:47.601Z,100095.16
2023-04-29T02:55:49.730Z,100098.19
2023-04-29T02:58:52.192Z,100099.16
2023-04-29T03:01:54.615Z,100104.56
2023-04-29T03:04:57.063Z,100101.87
2023-04-29T03:07:59.262Z,100109.97
2023-04-29T03:11:02.760Z,100107.44
2023-04-29T03:14:05.151Z,100105.06
2023-04-29T03:17:07.902Z,100102.03
2023-04-29T03:20:10.933Z,100098.34
2023-04-29T03:23:13.631Z,100102.66
2023-04-29T03:26:15.894Z,100100.91
2023-04-29T03:29:18.523Z,100106.31
2023-04-29T03:32:20.664Z,100099.31
2023-04-29T03:35:23.116Z,100108.56
2023-04-29T03:38:26.182Z,100108.22
2023-04-29T03:41:28.745Z,100110.59
2023-04-29T03:44:31.332Z,100115.41
2023-04-29T03:47:33.917Z,100111.06
2023-04-29T03:50:37.330Z,100107.44
2023-04-29T03:53:40.372Z,100124.59
2023-04-29T03:56:43.415Z,100128.25
2023-04-29T03:59:50.145Z,100128.09
2023-04-29T04:02:53.068Z,100134.50
2023-04-29T04:05:55.986Z,100139.25
2023-04-29T04:08:58.409Z,100135.44
2023-04-29T04:12:01.191Z,100139.44
2023-04-29T04:15:04.266Z,100138.00
2023-04-29T04:18:06.943Z,100144.03
2023-04-29T04:21:10.514Z,100138.13
2023-04-29T04:24:13.429Z,100138.31
2023-04-29T04:27:15.819Z,100137.34
2023-04-29T04:30:18.981Z,100137.50
2023-04-29T04:33:21.200Z,100144.84
2023-04-29T04:36:24.213Z,100143.06
2023-04-29T04:39:26.396Z,100149.78
2023-04-29T04:42:29.922Z,100141.81
2023-04-29T04:45:32.454Z,100138.31
2023-04-29T04:48:35.006Z,100139.91
2023-04-29T04:51:47.346Z,100140.69
2023-04-29T04:54:49.877Z,100136.09
2023-04-29T04:57:56.399Z,100141.81
2023-04-29T05:01:01.371Z,100137.19
2023-04-29T05:04:03.849Z,100127.16
2023-04-29T05:07:06.400Z,100126.38
2023-04-29T05:10:10.069Z,100119.50
2023-04-29T05:13:13.053Z,100132.59
2023-04-29T05:16:17.346Z,100133.38
2023-04-29T05:19:20.221Z,100137.03
2023-04-29T05:22:22.629Z,100129.41
2023-04-29T05:25:25.244Z,100137.69
2023-04-29T05:28:28.464Z,100133.22
2023-04-29T05:31:32.413Z,100134.00
2023-04-29T05:34:36.523Z,100134.81
2023-04-29T05:37:39.064Z,100133.22
2023-04-29T05:40:41.603Z,100130.66
2023-04-29T05:43:45.614Z,100139.91
2023-04-29T05:46:48.880Z,100138.78
2023-04-29T05:49:51.916Z,100149.16
2023-04-29T05:52:56.384Z,100156.81
2023-04-29T05:55:59.858Z,100151.84
2023-04-29T05:59:02.200Z,100146.63
2023-04-29T06:02:04.692Z,100149.63
2023-04-29T06:05:08.301Z,100153.44
2023-04-29T06:08:11.440Z,100153.28
2023-04-29T06:11:16.586Z,100151.84
2023-04-29T06:14:18.940Z,100146.41
2023-04-29T06:17:21.646Z,100143.06
2023-04-29T06:20:23.815Z,100155.97
2023-04-29T06:23:26.570Z,100150.09
2023-04-29T06:26:28.914Z,100162.97
2023-04-29T06:29:31.656Z,100157.88
2023-04-29T06:32:34.045Z,100158.84
2023-04-29T06:35:40.096Z,100161.09
2023-04-29T06:38:43.024Z,100162.84
2023-04-29T06:41:46.664Z,100162.03
2023-04-29T06:44:48.953Z,100160.28
2023-04-29T06:47:54.445Z,100159.94
2023-04-29T06:50:58.815Z,100150.31
2023-04-29T06:54:01.718Z,100150.03
2023-04-29T06:57:03.870Z,100157.50
2023-04-29T07:00:06.895Z,100159.88
2023-04-29T07:03:09.917Z,100162.13
2023-04-29T07:06:12.647Z,100164.88
2023-04-29T07:09:15.052Z,100155.13
2023-04-29T07:12:17.538Z,100159.56
2023-04-29T07:15:19.718Z,100159.56
2023-04-29T07:18:22.173Z,100156.25
2023-04-29T07:21:24.354Z,100155.28
2023-04-29T07:24:26.822Z,100160.38
2023-04-29T07:27:29.540Z,100165.00
2023-04-29T07:30:33.279Z,100164.50
2023-04-29T07:33:35.965Z,100166.25
2023-04-29T07:36:38.423Z,100165.41
2023-04-29T07:39:42.633Z,100167.50
2023-04-29T07:42:45.745Z,100153.56
2023-04-29T07:45:48.611Z,100154.97
2023-04-29T07:48:51.909Z,100153.03
2023-04-29T07:51:54.232Z,100162.47
2023-04-29T07:54:56.667Z,100161.28
2023-04-29T07:58:00.535Z,100168.22
2023-04-29T08:01:12.080Z,100162.53
2023-04-29T08:04:15.844Z,100177.88
2023-04-29T08:07:18.428Z,100174.34
2023-04-29T08:10:22.493Z,100172.50
2023-04-29T08:13:25.817Z,100179.50
2023-04-29T08:16:28.376Z,100180.69
2023-04-29T08:19:31.188Z,100182.13
2023-04-29T08:22:33.922Z,100178.53
2023-04-29T08:25:36.285Z,100173.22
2023-04-29T08:28:39.321Z,100182.16
2023-04-29T08:31:41.595Z,100175.97
2023-04-29T08:34:44.553Z,100174.19
2023-04-29T08:37:47.626Z,100173.34
2023-04-29T08:40:50.050Z,100172.72
2023-04-29T08:43:52.302Z,100174.88
2023-04-29T08:46:55.929Z,100168.69
2023-04-29T08:50:04.190Z,100172.00
2023-04-29T08:53:10.465Z,100170.25
2023-04-29T08:56:20.503Z,100171.16
2023-04-29T08:59:23.799Z,100179.03
2023-04-29T09:02:26.352Z,100184.75
2023-04-29T09:05:29.172Z,100184.75
2023-04-29T09:08:33.438Z,100185.41
2023-04-29T09:11:37.149Z,100181.53
2023-04-29T09:14:39.308Z,100175.09
2023-04-29T09:17:46.709Z,100181.44
2023-04-29T09:20:48.939Z,100177.41
2023-04-29T09:23:53.803Z,100184.69
2023-04-29T09:26:56.580Z,100179.94
2023-04-29T09:30:02.143Z,100185.66
2023-04-29T09:33:09.054Z,100181.06
2023-04-29T09:36:11.602Z,100178.44
2023-04-29T09:39:18.985Z,100176.16
2023-04-29T09:42:21.502Z,100181.44
2023-04-29T09:45:37.200Z,100179.03
2023-04-29T09:48:39.624Z,100185.41
2023-04-29T09:51:53.197Z,100176.34
2023-04-29T09:55:05.093Z,100184.81
2023-04-29T09:58:07.211Z,100176.16
2023-04-29T10:01:10.361Z,100175.56
2023-04-29T10:04:15.483Z,100171.22
2023-04-29T10:07:19.102Z,100169.75
2023-04-29T10:10:23.159Z,100165.59
2023-04-29T10:13:26.812Z,100162.69
2023-04-29T10:16:31.476Z,100172.25
2023-04-29T10:20:06.477Z,100159.53
2023-04-29T10:23:11.197Z,100162.44
2023-04-29T10:26:15.231Z,100169.00
2023-04-29T10:29:18.897Z,100167.28
2023-04-29T10:32:22.290Z,100171.56
2023-04-29T10:35:25.645Z,100167.59
2023-04-29T10:38:42.511Z,100169.19
2023-04-29T10:41:47.075Z,100153.94
2023-04-29T10:45:23.653Z,100144.31
2023-04-29T10:48:26.631Z,100142.44
2023-04-29T10:51:47.037Z,100130.81
2023-04-29T10:55:04.992Z,100126.50
2023-04-29T10:58:39.259Z,100122.47
2023-04-29T11:01:47.623Z,100117.78
2023-04-29T11:05:12.638Z,100114.19
2023-04-29T11:08:24.525Z,100096.09
2023-04-29T11:11:28.339Z,100092.16
2023-04-29T11:14:42.033Z,100090.59
2023-04-29T11:17:46.932Z,100088.31
2023-04-29T11:21:04.435Z,100083.66
2023-04-29T11:24:07.086Z,100082.28
2023-04-29T11:27:09.880Z,100080.03
2023-04-29T11:30:13.418Z,100087.66
2023-04-29T11:33:15.990Z,100087.09
2023-04-29T11:36:18.393Z,100087.09
2023-04-29T11:39:21.105Z,100077.91
2023-04-29T11:42:23.755Z,100083.41
2023-04-29T11:45:26.870Z,100086.62
2023-04-29T11:48:30.319Z,100081.31
2023-04-29T11:51:32.932Z,100074.00
2023-04-29T11:54:35.270Z,100076.72
2023-04-29T11:57:39.216Z,100074.87
2023-04-29T12:00:41.515Z,100072.41
2023-04-29T12:03:46.427Z,100083.31
2023-04-29T12:06:52.717Z,100082.06
2023-04-29T12:09:56.642Z,100081.00
2023-04-29T12:12:58.947Z,100085.03
2023-04-29T12:16:02.185Z,100078.59
2023-04-29T12:19:05.160Z,100078.38
2023-04-29T12:22:08.425Z,100075.53
2023-04-29T12:25:10.849Z,100073.63
2023-04-29T12:28:13.943Z,100065.06
2023-04-29T12:31:16.873Z,100055.94
2023-04-29T12:34:33.903Z,100061.50
2023-04-29T12:37:36.298Z,100059.47
2023-04-29T12:40:38.851Z,100050.72
2023-04-29T12:43:42.346Z,100047.53
2023-04-29T12:46:44.806Z,100043.50
2023-04-29T12:49:48.280Z,100051.97
2023-04-29T12:52:51.175Z,100049.41
2023-04-29T12:55:53.977Z,100032.41
2023-04-29T12:58:57.047Z,100029.81
2023-04-29T13:01:59.824Z,100032.75
2023-04-29T13:05:02.634Z,100031.62
2023-04-29T13:08:06.814Z,100024.69
2023-04-29T13:11:09.246Z,100015.81
2023-04-29T13:14:11.441Z,100011.69
2023-04-29T13:17:14.042Z,100016.47
2023-04-29T13:20:16.510Z,100016.22
2023-04-29T13:23:19.005Z,100005.16
2023-04-29T13:26:21.342Z,100009.69
2023-04-29T13:29:24.103Z,100003.13
2023-04-29T13:32:26.363Z,100000.72
2023-04-29T13:35:29.736Z,99996.75
2023-04-29T13:38:32.342Z,99991.63
2023-04-29T13:41:35.450Z,99992.50
2023-04-29T13:44:51.809Z,99985.56
2023-04-29T13:48:07.306Z,99972.47
2023-04-29T14:00:55.046Z,99978.59
2023-04-29T14:03:49.997Z,99981.16
2023-04-29T14:06:52.768Z,99977.06
2023-04-29T14:09:55.287Z,99982.31
2023-04-29T14:12:57.423Z,99989.62
2023-04-29T14:16:01.985Z,99977.75
2023-04-29T14:19:04.447Z,99977.31
2023-04-29T14:22:06.934Z,99972.72
2023-04-29T14:25:09.573Z,99972.41
2023-04-29T14:28:12.673Z,99963.25
2023-04-29T14:31:15.193Z,99961.56
2023-04-29T14:34:19.462Z,99959.53
2023-04-29T14:37:21.659Z,99952.00
2023-04-29T14:40:24.306Z,99953.09
2023-04-29T14:43:26.469Z,99955.31
2023-04-29T14:46:29.587Z,99948.66
2023-04-29T14:49:31.975Z,99952.19
2023-04-29T14:52:34.368Z,99955.31
2023-04-29T14:55:36.513Z,99961.97
2023-04-29T14:58:39.286Z,99960.44
2023-04-29T15:01:41.510Z,99963.94
2023-04-29T15:04:46.030Z,99966.00
2023-04-29T15:07:48.238Z,99965.13
2023-04-29T15:10:50.888Z,99964.00
2023-04-29T15:13:53.046Z,99963.37
2023-04-29T15:16:55.528Z,99961.88
2023-04-29T15:19:57.655Z,99957.97
2023-04-29T15:23:00.049Z,99958.62
2023-04-29T15:26:02.200Z,99960.06
2023-04-29T15:29:04.620Z,99959.84
2023-04-29T15:32:06.952Z,99962.06
2023-04-29T15:35:09.710Z,99951.84
2023-04-29T15:38:12.312Z,99954.84
2023-04-29T15:41:14.761Z,99952.41
2023-04-29T15:44:16.923Z,99950.44
2023-04-29T15:47:19.384Z,99955.31
2023-04-29T15:50:21.704Z,99950.78
2023-04-29T15:53:24.120Z,99935.97
2023-04-29T15:56:26.327Z,99943.22
2023-04-29T15:59:29.461Z,99940.78
2023-04-29T16:02:31.884Z,99934.78
2023-04-29T16:05:34.533Z,99931.28
2023-04-29T16:08:36.712Z,99929.78
2023-04-29T16:11:39.225Z,99939.50
2023-04-29T16:14:41.402Z,99941.47
2023-04-29T16:17:43.956Z,99936.28
2023-04-29T16:20:46.187Z,99945.97
2023-04-29T16:23:48.752Z,99945.03
2023-04-29T16:26:51.011Z,99945.59
2023-04-29T16:29:55.555Z,99949.56
2023-04-29T16:32:58.059Z,99941.06
2023-04-29T16:36:00.556Z,99931.66
2023-04-29T16:39:04.634Z,99936.81
2023-04-29T16:42:07.621Z,99936.81
2023-04-29T16:45:10.276Z,99934.78
2023-04-29T16:48:12.852Z,99943.78
2023-04-29T16:51:15.009Z,99939.34
2023-04-29T16:54:17.775Z,99936.56
2023-04-29T16:57:21.335Z,99929.06
2023-04-29T17:00:24.300Z,99927.84
2023-04-29T17:03:26.528Z,99931.28
2023-04-29T17:06:29.039Z,99942.97
2023-04-29T17:09:31.261Z,99948.34
2023-04-29T17:12:33.768Z,99954.16
2023-04-29T17:15:36.065Z,99951.72
2023-04-29T17:18:38.558Z,99951.22
2023-04-29T17:21:40.759Z,99959.91
2023-04-29T17:24:47.416Z,99963.22
2023-04-29T17:27:49.576Z,99965.38
2023-04-29T17:30:55.681Z,99959.12
2023-04-29T17:34:05.481Z,99962.16
2023-04-29T17:37:08.279Z,99967.00
2023-04-29T17:40:10.872Z,99966.44
2023-04-29T17:43:13.316Z,99977.53
2023-04-29T17:46:15.643Z,99980.00
2023-04-29T17:49:18.186Z,99984.31
2023-04-29T17:52:21.358Z,99980.28
2023-04-29T17:55:24.028Z,99985.25
2023-04-29T17:58:28.868Z,99990.56
2023-04-29T18:01:32.634Z,99990.03
2023-04-29T18:04:35.249Z,99992.06
2023-04-29T18:07:37.388Z,99983.63
2023-04-29T18:10:39.819Z,99984.13
2023-04-29T18:13:42.103Z,99991.78
2023-04-29T18:16:44.770Z,99999.38
2023-04-29T18:19:49.193Z,100006.06
2023-04-29T18:22:51.911Z,100005.53
2023-04-29T18:25:54.100Z,100000.28
2023-04-29T18:28:56.710Z,100005.03
2023-04-29T18:31:58.991Z,100010.53
2023-04-29T18:35:02.021Z,100023.44
2023-04-29T18:38:04.340Z,100017.78
2023-04-29T18:41:08.461Z,100015.31
2023-04-29T18:44:10.962Z,100034.19
2023-04-29T18:47:13.421Z,100033.78
2023-04-29T18:50:15.567Z,100032.34
2023-04-29T18:53:18.313Z,100038.16
2023-04-29T18:56:21.355Z,100036.69
2023-04-29T18:59:23.809Z,100038.06
2023-04-29T19:02:25.984Z,100042.06
2023-04-29T19:05:28.461Z,100040.22
2023-04-29T19:08:30.718Z,100054.37
2023-04-29T19:11:33.248Z,100048.56
2023-04-29T19:14:35.499Z,100047.91
2023-04-29T19:17:37.996Z,100057.22
2023-04-29T19:20:41.037Z,100054.37
2023-04-29T19:23:43.700Z,100057.56
2023-04-29T19:26:45.914Z,100055.72
2023-04-29T19:29:48.763Z,100061.06
2023-04-29T19:32:50.966Z,100056.31
2023-04-29T19:35:53.518Z,100056.31
2023-04-29T19:38:55.728Z,100060.28
2023-04-29T19:41:58.286Z,100060.16
2023-04-29T19:45:00.561Z,100057.69
2023-04-29T19:48:03.476Z,100053.50
2023-04-29T19:51:09.317Z,100058.59
2023-04-29T19:54:14.940Z,100063.91
2023-04-29T19:57:17.037Z,100074.03
2023-04-29T20:00:19.563Z,100070.75
2023-04-29T20:03:22.065Z,100061.00
2023-04-29T20:06:25.695Z,100063.91
2023-04-29T20:09:28.146Z,100071.72
2023-04-29T20:12:30.461Z,100071.44
2023-04-29T20:15:32.903Z,100078.59
2023-04-29T20:18:36.117Z,100073.81
2023-04-29T20:21:40.240Z,100071.31
2023-04-29T20:24:42.463Z,100065.66
2023-04-29T20:27:44.915Z,100071.69
2023-04-29T20:30:47.006Z,100070.44
2023-04-29T20:33:49.503Z,100059.09
2023-04-29T20:36:51.761Z,100062.53
2023-04-29T20:39:54.362Z,100070.56
2023-04-29T20:42:57.625Z,100065.66
2023-04-29T20:46:00.724Z,100072.47
2023-04-29T20:49:04.474Z,100066.47
2023-04-29T20:52:07.138Z,100066.00
2023-04-29T20:55:09.424Z,100079.72
2023-04-29T20:58:12.087Z,100086.62
2023-04-29T21:01:14.410Z,100076.78
2023-04-29T21:04:16.996Z,100084.03
2023-04-29T21:07:19.239Z,100080.72
2023-04-29T21:10:21.817Z,100085.94
2023-04-29T21:13:24.032Z,100091.72
2023-04-29T21:16:26.716Z,100093.31
2023-04-29T21:19:29.019Z,100093.31
2023-04-29T21:22:31.600Z,100084.81
2023-04-29T21:25:33.941Z,100084.47
2023-04-29T21:28:36.447Z,100090.81
2023-04-29T21:31:38.686Z,100086.97
2023-04-29T21:34:41.183Z,100095.81
2023-04-29T21:37:43.305Z,100098.97
2023-04-29T21:40:47.756Z,100094.66
2023-04-29T21:43:50.482Z,100095.25
2023-04-29T21:46:53.107Z,100100.09
2023-04-29T21:49:56.224Z,100098.19
2023-04-29T21:52:58.900Z,100098.06
2023-04-29T21:56:01.057Z,100096.94
2023-04-29T21:59:03.567Z,100103.97
2023-04-29T22:02:21.774Z,100107.81
2023-04-29T22:05:24.740Z,100103.03
2023-04-29T22:08:26.936Z,100102.25
2023-04-29T22:11:29.494Z,100103.38
2023-04-29T22:14:31.614Z,100097.50
2023-04-29T22:17:34.109Z,100093.41
2023-04-29T22:20:36.338Z,100098.63
2023-04-29T22:23:38.805Z,100090.12
2023-04-29T22:26:40.992Z,100087.84
2023-04-29T22:29:43.424Z,100090.34
2023-04-29T22:32:45.672Z,100092.25
2023-04-29T22:35:48.082Z,100095.31
2023-04-29T22:38:50.242Z,100099.41
2023-04-29T22:41:52.697Z,100096.91
2023-04-29T22:44:54.810Z,100096.22
2023-04-29T22:47:57.275Z,100095.09
2023-04-29T22:50:59.681Z,100104.06
2023-04-29T22:54:02.096Z,100097.16
2023-04-29T22:57:04.357Z,100097.81
2023-04-29T23:00:07.397Z,100101.87
2023-04-29T23:03:09.606Z,100105.06
2023-04-29T23:06:12.376Z,100098.94
2023-04-29T23:09:14.654Z,100105.31
2023-04-29T23:12:18.161Z,100107.09
2023-04-29T23:15:20.262Z,100104.38
2023-04-29T23:18:22.677Z,100108.44
2023-04-29T23:21:27.062Z,100104.59
2023-04-29T23:24:29.506Z,100107.63
2023-04-29T23:27:31.695Z,100108.19
2023-04-29T23:30:34.677Z,100097.87
2023-04-29T23:33:36.861Z,100101.41
2023-04-29T23:36:39.385Z,100092.78
2023-04-29T23:39:41.545Z,100092.34
2023-04-29T23:42:44.097Z,100091.97
2023-04-29T23:45:47.233Z,100094.34
2023-04-29T23:48:49.777Z,100095.66
2023-04-29T23:51:51.877Z,100089.75
2023-04-29T23:54:54.294Z,100094.03
2023-04-29T23:57:56.452Z,100095.97
